sensor_id;sensor_type;location;lat;lon;timestamp;pressure;altitude;pressure_sealevel;temperature;humidity
25610;BME280;13479;49.044;8.716;2023-02-04T05:00:47;100659.66;;;7.58;89.10
25610;BME280;13479;49.044;8.716;2023-02-04T05:03:13;100659.44;;;7.63;89.07
25610;BME280;13479;49.044;8.716;2023-02-04T05:05:38;100662.88;;;7.65;88.61
25610;BME280;13479;49.044;8.716;2023-02-04T05:08:06;100661.16;;;7.64;88.57
25610;BME280;13479;49.044;8.716;2023-02-04T05:10:37;100677.94;;;7.63;88.81
25610;BME280;13479;49.044;8.716;2023-02-04T05:13:02;100680.59;;;7.63;88.80
25610;BME280;13479;49.044;8.716;2023-02-04T05:15:27;100677.16;;;7.61;88.96
25610;BME280;13479;49.044;8.716;2023-02-04T05:17:52;100681.47;;;7.64;89.09
25610;BME280;13479;49.044;8.716;2023-02-04T05:20:18;100678.59;;;7.68;89.08
25610;BME280;13479;49.044;8.716;2023-02-04T05:22:43;100685.38;;;7.74;88.76
25610;BME280;13479;49.044;8.716;2023-02-04T05:25:09;100723.53;;;7.87;87.66
25610;BME280;13479;49.044;8.716;2023-02-04T05:27:34;100710.91;;;7.75;87.49
25610;BME280;13479;49.044;8.716;2023-02-04T05:30:00;100692.59;;;7.70;87.77
25610;BME280;13479;49.044;8.716;2023-02-04T05:32:25;100684.59;;;7.72;87.46
25610;BME280;13479;49.044;8.716;2023-02-04T05:34:50;100681.38;;;7.65;87.37
25610;BME280;13479;49.044;8.716;2023-02-04T05:37:15;100677.31;;;7.58;87.68
25610;BME280;13479;49.044;8.716;2023-02-04T05:39:43;100677.03;;;7.64;87.10
25610;BME280;13479;49.044;8.716;2023-02-04T05:42:08;100686.00;;;7.60;87.17
25610;BME280;13479;49.044;8.716;2023-02-04T05:44:33;100684.16;;;7.62;87.11
25610;BME280;13479;49.044;8.716;2023-02-04T05:46:58;100685.75;;;7.66;87.24
25610;BME280;13479;49.044;8.716;2023-02-04T05:49:23;100692.25;;;7.59;86.80
25610;BME280;13479;49.044;8.716;2023-02-04T05:51:49;100694.25;;;7.54;86.88
25610;BME280;13479;49.044;8.716;2023-02-04T05:54:14;100690.53;;;7.58;87.17
25610;BME280;13479;49.044;8.716;2023-02-04T05:56:43;100701.88;;;7.60;86.66
25610;BME280;13479;49.044;8.716;2023-02-04T05:59:09;100715.41;;;7.54;86.40
25610;BME280;13479;49.044;8.716;2023-02-04T06:01:34;100708.59;;;7.48;86.43
25610;BME280;13479;49.044;8.716;2023-02-04T06:03:59;100707.09;;;7.42;86.20
25610;BME280;13479;49.044;8.716;2023-02-04T06:06:24;100706.97;;;7.46;85.98
25610;BME280;13479;49.044;8.716;2023-02-04T06:08:50;100729.16;;;7.41;86.26
25610;BME280;13479;49.044;8.716;2023-02-04T06:11:15;100721.31;;;7.40;85.88
25610;BME280;13479;49.044;8.716;2023-02-04T06:13:40;100721.00;;;7.27;86.18
25610;BME280;13479;49.044;8.716;2023-02-04T06:16:06;100705.31;;;7.24;86.55
25610;BME280;13479;49.044;8.716;2023-02-04T06:18:31;100688.38;;;7.28;86.67
25610;BME280;13479;49.044;8.716;2023-02-04T06:20:56;100694.75;;;7.24;86.55
25610;BME280;13479;49.044;8.716;2023-02-04T06:23:21;100689.59;;;7.21;86.63
25610;BME280;13479;49.044;8.716;2023-02-04T06:25:47;100688.09;;;7.15;86.81
25610;BME280;13479;49.044;8.716;2023-02-04T06:28:13;100692.72;;;7.29;86.76
25610;BME280;13479;49.044;8.716;2023-02-04T06:30:39;100715.47;;;7.33;86.19
25610;BME280;13479;49.044;8.716;2023-02-04T06:33:04;100726.69;;;7.18;86.67
25610;BME280;13479;49.044;8.716;2023-02-04T06:35:29;100726.00;;;7.14;86.55
25610;BME280;13479;49.044;8.716;2023-02-04T06:37:54;100719.31;;;7.05;86.84
25610;BME280;13479;49.044;8.716;2023-02-04T06:40:20;100703.84;;;6.98;86.90
25610;BME280;13479;49.044;8.716;2023-02-04T06:42:45;100713.41;;;7.00;87.00
25610;BME280;13479;49.044;8.716;2023-02-04T06:45:10;100724.88;;;6.99;87.16
25610;BME280;13479;49.044;8.716;2023-02-04T06:47:35;100725.53;;;7.04;87.14
25610;BME280;13479;49.044;8.716;2023-02-04T06:50:01;100736.63;;;7.13;87.22
25610;BME280;13479;49.044;8.716;2023-02-04T06:52:26;100745.53;;;7.10;87.00
25610;BME280;13479;49.044;8.716;2023-02-04T06:54:51;100741.13;;;7.10;87.33
25610;BME280;13479;49.044;8.716;2023-02-04T06:57:16;100735.91;;;7.09;87.35
25610;BME280;13479;49.044;8.716;2023-02-04T06:59:42;100746.41;;;7.10;86.88
25610;BME280;13479;49.044;8.716;2023-02-04T07:02:09;100754.13;;;7.15;87.24
25610;BME280;13479;49.044;8.716;2023-02-04T07:04:35;100775.13;;;7.18;86.38
25610;BME280;13479;49.044;8.716;2023-02-04T07:07:00;100785.75;;;7.17;86.26
25610;BME280;13479;49.044;8.716;2023-02-04T07:09:25;100790.91;;;7.20;85.73
25610;BME280;13479;49.044;8.716;2023-02-04T07:11:51;100782.13;;;7.19;85.73
25610;BME280;13479;49.044;8.716;2023-02-04T07:14:16;100781.25;;;7.19;85.60
25610;BME280;13479;49.044;8.716;2023-02-04T07:16:43;100774.41;;;7.15;85.83
25610;BME280;13479;49.044;8.716;2023-02-04T07:19:08;100782.34;;;7.15;85.85
25610;BME280;13479;49.044;8.716;2023-02-04T07:21:33;100773.66;;;7.11;85.67
25610;BME280;13479;49.044;8.716;2023-02-04T07:23:59;100780.66;;;7.12;85.71
25610;BME280;13479;49.044;8.716;2023-02-04T07:26:24;100784.03;;;7.16;85.62
25610;BME280;13479;49.044;8.716;2023-02-04T07:28:50;100777.09;;;7.13;85.71
25610;BME280;13479;49.044;8.716;2023-02-04T07:31:16;100782.59;;;7.08;85.71
25610;BME280;13479;49.044;8.716;2023-02-04T07:33:41;100790.59;;;7.07;85.54
25610;BME280;13479;49.044;8.716;2023-02-04T07:36:06;100786.94;;;7.09;85.54
25610;BME280;13479;49.044;8.716;2023-02-04T07:38:32;100796.66;;;7.09;85.37
25610;BME280;13479;49.044;8.716;2023-02-04T07:40:57;100807.03;;;7.14;85.44
25610;BME280;13479;49.044;8.716;2023-02-04T07:43:22;100821.56;;;7.24;84.80
25610;BME280;13479;49.044;8.716;2023-02-04T07:45:47;100829.19;;;7.30;84.69
25610;BME280;13479;49.044;8.716;2023-02-04T07:48:13;100820.88;;;7.39;84.41
25610;BME280;13479;49.044;8.716;2023-02-04T07:50:38;100819.81;;;7.44;84.47
25610;BME280;13479;49.044;8.716;2023-02-04T07:53:03;100813.41;;;7.49;83.79
25610;BME280;13479;49.044;8.716;2023-02-04T07:55:28;100805.38;;;7.51;83.60
25610;BME280;13479;49.044;8.716;2023-02-04T07:57:54;100812.28;;;7.55;83.46
25610;BME280;13479;49.044;8.716;2023-02-04T08:00:19;100807.47;;;7.63;83.57
25610;BME280;13479;49.044;8.716;2023-02-04T08:02:45;100801.06;;;7.69;83.13
25610;BME280;13479;49.044;8.716;2023-02-04T08:05:10;100818.28;;;7.78;82.67
25610;BME280;13479;49.044;8.716;2023-02-04T08:07:35;100810.22;;;7.81;82.58
25610;BME280;13479;49.044;8.716;2023-02-04T08:10:02;100801.22;;;7.85;82.39
25610;BME280;13479;49.044;8.716;2023-02-04T08:12:27;100797.22;;;7.95;82.16
25610;BME280;13479;49.044;8.716;2023-02-04T08:14:52;100800.16;;;8.08;82.42
25610;BME280;13479;49.044;8.716;2023-02-04T08:17:18;100811.34;;;8.32;81.82
25610;BME280;13479;49.044;8.716;2023-02-04T08:19:43;100816.09;;;8.62;81.19
25610;BME280;13479;49.044;8.716;2023-02-04T08:22:08;100823.94;;;8.83;80.27
25610;BME280;13479;49.044;8.716;2023-02-04T08:24:35;100817.00;;;8.98;79.44
25610;BME280;13479;49.044;8.716;2023-02-04T08:27:00;100811.81;;;9.12;78.15
25610;BME280;13479;49.044;8.716;2023-02-04T08:29:26;100813.94;;;9.23;77.14
25610;BME280;13479;49.044;8.716;2023-02-04T08:31:51;100803.63;;;9.35;76.21
25610;BME280;13479;49.044;8.716;2023-02-04T08:34:16;100803.91;;;9.46;75.49
25610;BME280;13479;49.044;8.716;2023-02-04T08:36:41;100776.13;;;9.53;75.27
25610;BME280;13479;49.044;8.716;2023-02-04T08:39:08;100792.00;;;9.71;74.28
25610;BME280;13479;49.044;8.716;2023-02-04T08:41:33;100768.56;;;9.79;74.07
25610;BME280;13479;49.044;8.716;2023-02-04T08:43:59;100791.34;;;9.99;72.93
25610;BME280;13479;49.044;8.716;2023-02-04T08:46:24;100790.41;;;10.16;72.45
25610;BME280;13479;49.044;8.716;2023-02-04T08:48:49;100782.03;;;10.40;71.59
25610;BME280;13479;49.044;8.716;2023-02-04T08:51:14;100786.63;;;10.83;71.08
25610;BME280;13479;49.044;8.716;2023-02-04T08:53:41;100777.31;;;11.50;70.21
25610;BME280;13479;49.044;8.716;2023-02-04T08:56:06;100804.88;;;12.61;68.28
25610;BME280;13479;49.044;8.716;2023-02-04T08:58:33;100831.31;;;14.45;63.16
25610;BME280;13479;49.044;8.716;2023-02-04T09:00:58;100803.69;;;15.74;55.87
25610;BME280;13479;49.044;8.716;2023-02-04T09:03:23;100765.38;;;16.29;53.54
25610;BME280;13479;49.044;8.716;2023-02-04T09:05:48;100748.59;;;16.81;51.43
25610;BME280;13479;49.044;8.716;2023-02-04T09:08:14;100749.75;;;17.31;49.64
25610;BME280;13479;49.044;8.716;2023-02-04T09:10:40;100746.44;;;17.48;48.69
25610;BME280;13479;49.044;8.716;2023-02-04T09:13:05;100745.88;;;17.54;48.02
25610;BME280;13479;49.044;8.716;2023-02-04T09:15:33;100774.00;;;17.50;45.40
25610;BME280;13479;49.044;8.716;2023-02-04T09:17:58;100775.44;;;17.23;44.51
25610;BME280;13479;49.044;8.716;2023-02-04T09:20:35;100789.56;;;16.83;44.09
25610;BME280;13479;49.044;8.716;2023-02-04T09:23:01;100780.50;;;16.63;44.75
25610;BME280;13479;49.044;8.716;2023-02-04T09:25:26;100758.22;;;16.51;46.44
25610;BME280;13479;49.044;8.716;2023-02-04T09:27:51;100796.97;;;16.58;44.59
25610;BME280;13479;49.044;8.716;2023-02-04T09:30:16;100789.88;;;16.25;44.83
25610;BME280;13479;49.044;8.716;2023-02-04T09:32:42;100786.41;;;15.90;45.88
25610;BME280;13479;49.044;8.716;2023-02-04T09:35:07;100743.34;;;15.48;47.38
25610;BME280;13479;49.044;8.716;2023-02-04T09:37:32;100721.41;;;15.08;48.23
25610;BME280;13479;49.044;8.716;2023-02-04T09:39:57;100722.09;;;14.76;47.51
25610;BME280;13479;49.044;8.716;2023-02-04T09:42:24;100681.63;;;14.10;49.33
25610;BME280;13479;49.044;8.716;2023-02-04T09:44:50;100669.84;;;13.64;50.76
25610;BME280;13479;49.044;8.716;2023-02-04T09:47:17;100651.25;;;13.12;51.77
25610;BME280;13479;49.044;8.716;2023-02-04T09:49:46;100636.66;;;12.79;52.58
25610;BME280;13479;49.044;8.716;2023-02-04T09:52:13;100637.56;;;12.66;52.59
25610;BME280;13479;49.044;8.716;2023-02-04T09:54:40;100635.19;;;12.36;53.01
25610;BME280;13479;49.044;8.716;2023-02-04T09:57:13;100621.16;;;12.07;53.72
25610;BME280;13479;49.044;8.716;2023-02-04T09:59:39;100618.81;;;12.02;54.63
25610;BME280;13479;49.044;8.716;2023-02-04T10:02:25;100614.78;;;11.82;55.91
25610;BME280;13479;49.044;8.716;2023-02-04T10:04:51;100610.66;;;11.63;55.23
25610;BME280;13479;49.044;8.716;2023-02-04T10:07:21;100603.63;;;11.62;54.88
25610;BME280;13479;49.044;8.716;2023-02-04T10:09:50;100607.63;;;11.55;55.54
25610;BME280;13479;49.044;8.716;2023-02-04T10:12:16;100605.50;;;11.47;56.19
25610;BME280;13479;49.044;8.716;2023-02-04T10:14:41;100606.97;;;11.51;56.26
25610;BME280;13479;49.044;8.716;2023-02-04T10:17:08;100643.38;;;11.51;54.94
25610;BME280;13479;49.044;8.716;2023-02-04T10:19:34;100657.81;;;11.47;54.64
25610;BME280;13479;49.044;8.716;2023-02-04T10:22:02;100641.69;;;11.21;55.83
25610;BME280;13479;49.044;8.716;2023-02-04T10:24:27;100599.47;;;11.16;57.17
25610;BME280;13479;49.044;8.716;2023-02-04T10:27:05;100606.22;;;11.07;57.53
25610;BME280;13479;49.044;8.716;2023-02-04T10:29:31;100611.50;;;11.22;57.49
25610;BME280;13479;49.044;8.716;2023-02-04T10:31:56;100626.91;;;11.31;57.34
25610;BME280;13479;49.044;8.716;2023-02-04T10:34:31;100618.50;;;11.37;57.72
25610;BME280;13479;49.044;8.716;2023-02-04T10:36:56;100614.72;;;11.41;58.34
25610;BME280;13479;49.044;8.716;2023-02-04T10:39:24;100612.41;;;11.50;58.38
25610;BME280;13479;49.044;8.716;2023-02-04T10:41:51;100619.03;;;11.57;58.39
25610;BME280;13479;49.044;8.716;2023-02-04T10:44:31;100632.78;;;11.64;58.06
25610;BME280;13479;49.044;8.716;2023-02-04T10:47:13;100642.38;;;11.66;57.50
25610;BME280;13479;49.044;8.716;2023-02-04T10:49:41;100716.88;;;11.66;56.37
25610;BME280;13479;49.044;8.716;2023-02-04T10:52:16;100752.63;;;11.62;55.79
25610;BME280;13479;49.044;8.716;2023-02-04T10:54:42;100758.88;;;11.47;55.87
25610;BME280;13479;49.044;8.716;2023-02-04T10:57:21;100763.72;;;11.40;55.96
25610;BME280;13479;49.044;8.716;2023-02-04T10:59:49;100759.84;;;11.31;56.18
25610;BME280;13479;49.044;8.716;2023-02-04T11:04:55;100789.16;;;11.15;55.26
25610;BME280;13479;49.044;8.716;2023-02-04T11:07:21;100812.22;;;11.15;54.63
25610;BME280;13479;49.044;8.716;2023-02-04T11:09:47;100797.19;;;10.99;55.32
25610;BME280;13479;49.044;8.716;2023-02-04T11:12:41;100814.78;;;11.02;54.53
25610;BME280;13479;49.044;8.716;2023-02-04T11:18:06;100659.91;;;10.55;57.87
25610;BME280;13479;49.044;8.716;2023-02-04T11:20:33;100636.84;;;10.41;57.77
25610;BME280;13479;49.044;8.716;2023-02-04T11:25:38;100624.19;;;10.14;58.76
25610;BME280;13479;49.044;8.716;2023-02-04T11:28:15;100607.63;;;10.10;59.35
25610;BME280;13479;49.044;8.716;2023-02-04T11:30:40;100624.31;;;10.12;59.01
25610;BME280;13479;49.044;8.716;2023-02-04T11:33:21;100623.63;;;10.09;59.38
25610;BME280;13479;49.044;8.716;2023-02-04T11:36:00;100627.13;;;10.09;59.12
25610;BME280;13479;49.044;8.716;2023-02-04T11:38:29;100612.53;;;10.02;60.00
25610;BME280;13479;49.044;8.716;2023-02-04T11:40:56;100612.88;;;10.26;60.12
25610;BME280;13479;49.044;8.716;2023-02-04T11:43:22;100640.38;;;10.56;59.33
25610;BME280;13479;49.044;8.716;2023-02-04T11:45:48;100702.47;;;10.98;57.67
25610;BME280;13479;49.044;8.716;2023-02-04T11:48:24;100775.41;;;11.37;56.73
25610;BME280;13479;49.044;8.716;2023-02-04T11:50:57;100816.34;;;11.78;56.01
25610;BME280;13479;49.044;8.716;2023-02-04T11:53:27;100846.63;;;12.33;53.20
25610;BME280;13479;49.044;8.716;2023-02-04T11:55:53;100864.16;;;12.78;51.15
25610;BME280;13479;49.044;8.716;2023-02-04T11:58:19;100848.44;;;12.88;51.74
25610;BME280;13479;49.044;8.716;2023-02-04T12:00:45;100854.34;;;13.06;50.87
25610;BME280;13479;49.044;8.716;2023-02-04T12:03:28;100851.16;;;13.13;50.13
25610;BME280;13479;49.044;8.716;2023-02-04T12:05:55;100841.25;;;13.16;50.28
25610;BME280;13479;49.044;8.716;2023-02-04T12:11:09;100855.13;;;13.21;48.89
25610;BME280;13479;49.044;8.716;2023-02-04T12:13:46;100857.13;;;13.17;49.07
25610;BME280;13479;49.044;8.716;2023-02-04T12:16:12;100857.22;;;13.03;49.19
25610;BME280;13479;49.044;8.716;2023-02-04T12:18:37;100829.66;;;12.89;49.47
25610;BME280;13479;49.044;8.716;2023-02-04T12:21:03;100848.41;;;12.75;47.92
25610;BME280;13479;49.044;8.716;2023-02-04T12:23:29;100835.31;;;12.57;48.20
25610;BME280;13479;49.044;8.716;2023-02-04T12:25:54;100834.22;;;12.47;48.20
25610;BME280;13479;49.044;8.716;2023-02-04T12:28:20;100833.97;;;12.37;48.32
25610;BME280;13479;49.044;8.716;2023-02-04T12:30:45;100852.94;;;12.32;47.37
25610;BME280;13479;49.044;8.716;2023-02-04T12:33:11;100853.41;;;12.25;47.59
25610;BME280;13479;49.044;8.716;2023-02-04T12:35:36;100859.03;;;12.20;47.30
25610;BME280;13479;49.044;8.716;2023-02-04T12:38:02;100839.25;;;11.95;48.12
25610;BME280;13479;49.044;8.716;2023-02-04T12:40:27;100819.78;;;11.80;48.60
25610;BME280;13479;49.044;8.716;2023-02-04T12:42:53;100808.00;;;11.70;48.60
25610;BME280;13479;49.044;8.716;2023-02-04T12:45:19;100772.00;;;11.50;49.48
25610;BME280;13479;49.044;8.716;2023-02-04T12:47:44;100754.44;;;11.47;49.19
25610;BME280;13479;49.044;8.716;2023-02-04T12:50:12;100762.69;;;11.42;49.27
25610;BME280;13479;49.044;8.716;2023-02-04T12:52:38;100745.22;;;11.38;49.64
25610;BME280;13479;49.044;8.716;2023-02-04T12:55:04;100785.28;;;11.50;47.81
25610;BME280;13479;49.044;8.716;2023-02-04T12:57:31;100838.09;;;11.56;47.45
25610;BME280;13479;49.044;8.716;2023-02-04T12:59:56;100860.34;;;11.69;46.59
25610;BME280;13479;49.044;8.716;2023-02-04T13:02:24;100849.16;;;11.64;47.71
25610;BME280;13479;49.044;8.716;2023-02-04T13:04:49;100837.53;;;11.65;47.73
25610;BME280;13479;49.044;8.716;2023-02-04T13:07:14;100821.38;;;11.68;48.25
25610;BME280;13479;49.044;8.716;2023-02-04T13:09:40;100773.78;;;11.78;49.34
25610;BME280;13479;49.044;8.716;2023-02-04T13:12:05;100756.06;;;12.06;49.28
25610;BME280;13479;49.044;8.716;2023-02-04T13:14:30;100747.94;;;12.22;48.99
25610;BME280;13479;49.044;8.716;2023-02-04T13:16:57;100794.75;;;12.39;47.95
25610;BME280;13479;49.044;8.716;2023-02-04T13:19:22;100814.63;;;12.48;47.91
25610;BME280;13479;49.044;8.716;2023-02-04T13:21:47;100828.97;;;12.60;48.65
25610;BME280;13479;49.044;8.716;2023-02-04T13:24:12;100799.97;;;12.55;49.28
25610;BME280;13479;49.044;8.716;2023-02-04T13:26:37;100778.66;;;12.55;49.20
25610;BME280;13479;49.044;8.716;2023-02-04T13:29:03;100754.72;;;12.41;50.19
25610;BME280;13479;49.044;8.716;2023-02-04T13:31:28;100750.81;;;12.19;49.78
25610;BME280;13479;49.044;8.716;2023-02-04T13:33:53;100739.34;;;12.04;49.96
25610;BME280;13479;49.044;8.716;2023-02-04T13:36:19;100738.72;;;11.86;50.18
25610;BME280;13479;49.044;8.716;2023-02-04T13:38:44;100725.78;;;11.65;50.67
25610;BME280;13479;49.044;8.716;2023-02-04T13:41:09;100707.69;;;11.43;51.77
25610;BME280;13479;49.044;8.716;2023-02-04T13:43:34;100701.34;;;11.31;52.14
25610;BME280;13479;49.044;8.716;2023-02-04T13:46:00;100696.22;;;11.28;52.07
25610;BME280;13479;49.044;8.716;2023-02-04T13:48:28;100691.66;;;11.16;52.61
25610;BME280;13479;49.044;8.716;2023-02-04T13:50:53;100683.38;;;11.06;52.92
25610;BME280;13479;49.044;8.716;2023-02-04T13:53:18;100694.69;;;10.95;53.03
25610;BME280;13479;49.044;8.716;2023-02-04T13:55:44;100686.53;;;10.84;53.53
25610;BME280;13479;49.044;8.716;2023-02-04T13:58:09;100690.97;;;10.83;53.33
25610;BME280;13479;49.044;8.716;2023-02-04T14:00:34;100697.50;;;10.77;53.15
25610;BME280;13479;49.044;8.716;2023-02-04T14:02:59;100711.72;;;10.62;52.99
25610;BME280;13479;49.044;8.716;2023-02-04T14:05:25;100685.28;;;10.44;53.70
25610;BME280;13479;49.044;8.716;2023-02-04T14:07:50;100677.44;;;10.27;54.39
25610;BME280;13479;49.044;8.716;2023-02-04T14:10:17;100687.41;;;10.23;54.08
25610;BME280;13479;49.044;8.716;2023-02-04T14:12:42;100695.53;;;10.20;53.99
25610;BME280;13479;49.044;8.716;2023-02-04T14:15:09;100683.63;;;10.11;54.73
25610;BME280;13479;49.044;8.716;2023-02-04T14:17:35;100684.16;;;10.02;54.79
25610;BME280;13479;49.044;8.716;2023-02-04T14:20:00;100699.72;;;10.08;54.34
25610;BME280;13479;49.044;8.716;2023-02-04T14:22:26;100715.66;;;10.08;54.02
25610;BME280;13479;49.044;8.716;2023-02-04T14:24:51;100739.19;;;10.14;53.61
25610;BME280;13479;49.044;8.716;2023-02-04T14:27:16;100779.69;;;10.18;53.14
25610;BME280;13479;49.044;8.716;2023-02-04T14:29:41;100787.75;;;10.16;53.30
25610;BME280;13479;49.044;8.716;2023-02-04T14:32:07;100817.53;;;10.22;52.34
25610;BME280;13479;49.044;8.716;2023-02-04T14:34:32;100864.31;;;10.24;50.96
25610;BME280;13479;49.044;8.716;2023-02-04T14:36:58;100878.78;;;10.18;50.69
25610;BME280;13479;49.044;8.716;2023-02-04T14:39:23;100872.50;;;10.19;51.01
25610;BME280;13479;49.044;8.716;2023-02-04T14:41:48;100881.91;;;10.25;50.91
25610;BME280;13479;49.044;8.716;2023-02-04T14:44:14;100893.41;;;10.26;50.10
25610;BME280;13479;49.044;8.716;2023-02-04T14:46:44;100900.75;;;10.38;49.96
25610;BME280;13479;49.044;8.716;2023-02-04T14:49:12;100903.78;;;10.30;49.98
25610;BME280;13479;49.044;8.716;2023-02-04T14:51:37;100886.13;;;10.13;50.43
25610;BME280;13479;49.044;8.716;2023-02-04T14:54:02;100873.50;;;10.01;50.77
25610;BME280;13479;49.044;8.716;2023-02-04T14:56:28;100841.50;;;9.88;51.31
25610;BME280;13479;49.044;8.716;2023-02-04T14:58:53;100801.56;;;9.57;52.44
25610;BME280;13479;49.044;8.716;2023-02-04T15:01:18;100762.28;;;9.48;53.28
25610;BME280;13479;49.044;8.716;2023-02-04T15:03:44;100741.84;;;9.50;52.92
25610;BME280;13479;49.044;8.716;2023-02-04T15:06:09;100740.28;;;9.46;52.88
25610;BME280;13479;49.044;8.716;2023-02-04T15:08:35;100740.53;;;9.41;53.05
25610;BME280;13479;49.044;8.716;2023-02-04T15:11:00;100722.78;;;9.26;53.46
25610;BME280;13479;49.044;8.716;2023-02-04T15:13:26;100722.25;;;9.19;53.61
25610;BME280;13479;49.044;8.716;2023-02-04T15:15:52;100708.47;;;9.12;53.34
25610;BME280;13479;49.044;8.716;2023-02-04T15:18:18;100721.81;;;9.11;53.48
25610;BME280;13479;49.044;8.716;2023-02-04T15:20:43;100712.00;;;9.13;53.46
25610;BME280;13479;49.044;8.716;2023-02-04T15:23:08;100737.72;;;9.11;53.64
25610;BME280;13479;49.044;8.716;2023-02-04T15:25:37;100743.91;;;9.11;53.19
25610;BME280;13479;49.044;8.716;2023-02-04T15:28:02;100738.22;;;9.02;53.37
25610;BME280;13479;49.044;8.716;2023-02-04T15:30:28;100723.72;;;8.91;53.62
25610;BME280;13479;49.044;8.716;2023-02-04T15:32:53;100712.50;;;8.86;54.52
25610;BME280;13479;49.044;8.716;2023-02-04T15:35:18;100715.00;;;8.89;54.02
25610;BME280;13479;49.044;8.716;2023-02-04T15:37:45;100758.88;;;8.95;52.68
25610;BME280;13479;49.044;8.716;2023-02-04T15:40:11;100782.31;;;8.85;53.27
25610;BME280;13479;49.044;8.716;2023-02-04T15:42:36;100776.09;;;8.69;53.53
25610;BME280;13479;49.044;8.716;2023-02-04T15:45:02;100750.78;;;8.63;53.97
25610;BME280;13479;49.044;8.716;2023-02-04T15:47:27;100723.09;;;8.51;54.68
25610;BME280;13479;49.044;8.716;2023-02-04T15:49:52;100708.59;;;8.41;55.05
25610;BME280;13479;49.044;8.716;2023-02-04T15:52:18;100710.06;;;8.29;55.96
25610;BME280;13479;49.044;8.716;2023-02-04T15:54:43;100710.22;;;8.26;55.69
25610;BME280;13479;49.044;8.716;2023-02-04T15:57:08;100712.03;;;8.25;55.80
25610;BME280;13479;49.044;8.716;2023-02-04T15:59:33;100714.16;;;8.17;55.84
25610;BME280;13479;49.044;8.716;2023-02-04T16:01:59;100718.84;;;8.12;56.00
25610;BME280;13479;49.044;8.716;2023-02-04T16:04:24;100708.72;;;8.02;56.70
25610;BME280;13479;49.044;8.716;2023-02-04T16:06:49;100701.28;;;7.92;57.66
25610;BME280;13479;49.044;8.716;2023-02-04T16:09:15;100699.75;;;7.87;57.99
25610;BME280;13479;49.044;8.716;2023-02-04T16:11:41;100707.31;;;7.76;58.42
25610;BME280;13479;49.044;8.716;2023-02-04T16:14:06;100716.09;;;7.77;58.06
25610;BME280;13479;49.044;8.716;2023-02-04T16:16:31;100715.44;;;7.71;58.61
25610;BME280;13479;49.044;8.716;2023-02-04T16:18:57;100731.41;;;7.70;58.69
25610;BME280;13479;49.044;8.716;2023-02-04T16:21:22;100731.13;;;7.57;58.74
25610;BME280;13479;49.044;8.716;2023-02-04T16:23:48;100726.25;;;7.48;58.87
25610;BME280;13479;49.044;8.716;2023-02-04T16:26:13;100724.69;;;7.44;59.34
25610;BME280;13479;49.044;8.716;2023-02-04T16:28:38;100739.44;;;7.29;59.23
25610;BME280;13479;49.044;8.716;2023-02-04T16:31:03;100736.81;;;7.29;58.52
25610;BME280;13479;49.044;8.716;2023-02-04T16:33:29;100753.13;;;7.18;58.95
25610;BME280;13479;49.044;8.716;2023-02-04T16:36:03;100731.16;;;7.17;60.38
25610;BME280;13479;49.044;8.716;2023-02-04T16:38:29;100737.69;;;7.08;61.38
25610;BME280;13479;49.044;8.716;2023-02-04T16:40:55;100724.38;;;6.91;62.10
25610;BME280;13479;49.044;8.716;2023-02-04T16:43:22;100724.38;;;6.91;62.95
25610;BME280;13479;49.044;8.716;2023-02-04T16:45:47;100723.63;;;6.87;63.75
25610;BME280;13479;49.044;8.716;2023-02-04T16:48:12;100734.19;;;6.87;64.61
25610;BME280;13479;49.044;8.716;2023-02-04T16:50:38;100739.47;;;6.87;65.27
25610;BME280;13479;49.044;8.716;2023-02-04T16:53:03;100745.75;;;6.85;65.20
25610;BME280;13479;49.044;8.716;2023-02-04T16:55:28;100747.75;;;6.79;66.31
25610;BME280;13479;49.044;8.716;2023-02-04T16:57:55;100755.59;;;6.81;65.65
25610;BME280;13479;49.044;8.716;2023-02-04T17:00:20;100762.59;;;6.82;65.39
25610;BME280;13479;49.044;8.716;2023-02-04T17:02:45;100762.50;;;6.84;65.27
25610;BME280;13479;49.044;8.716;2023-02-04T17:05:11;100764.19;;;6.86;64.81
25610;BME280;13479;49.044;8.716;2023-02-04T17:07:36;100779.16;;;6.86;64.72
25610;BME280;13479;49.044;8.716;2023-02-04T17:10:01;100782.47;;;6.91;64.12
25610;BME280;13479;49.044;8.716;2023-02-04T17:12:27;100796.09;;;6.80;64.13
25610;BME280;13479;49.044;8.716;2023-02-04T17:14:52;100811.88;;;6.82;63.71
25610;BME280;13479;49.044;8.716;2023-02-04T17:17:17;100803.94;;;6.61;63.98
25610;BME280;13479;49.044;8.716;2023-02-04T17:19:43;100776.63;;;6.62;64.97
25610;BME280;13479;49.044;8.716;2023-02-04T17:22:08;100779.53;;;6.56;64.90
25610;BME280;13479;49.044;8.716;2023-02-04T17:24:33;100779.66;;;6.53;65.19
25610;BME280;13479;49.044;8.716;2023-02-04T17:27:04;100769.06;;;6.32;65.67
25610;BME280;13479;49.044;8.716;2023-02-04T17:29:29;100771.00;;;6.27;66.00
25610;BME280;13479;49.044;8.716;2023-02-04T17:31:54;100778.91;;;6.27;66.76
25610;BME280;13479;49.044;8.716;2023-02-04T17:34:20;100776.19;;;6.08;66.89
25610;BME280;13479;49.044;8.716;2023-02-04T17:36:45;100782.38;;;6.07;67.59
25610;BME280;13479;49.044;8.716;2023-02-04T17:39:10;100779.38;;;5.92;68.27
25610;BME280;13479;49.044;8.716;2023-02-04T17:41:36;100782.72;;;5.96;68.54
25610;BME280;13479;49.044;8.716;2023-02-04T17:44:01;100788.13;;;5.93;68.10
25610;BME280;13479;49.044;8.716;2023-02-04T17:46:27;100802.84;;;6.00;67.55
25610;BME280;13479;49.044;8.716;2023-02-04T17:48:53;100796.84;;;5.95;67.89
25610;BME280;13479;49.044;8.716;2023-02-04T17:51:18;100820.56;;;5.95;67.55
25610;BME280;13479;49.044;8.716;2023-02-04T17:53:43;100805.91;;;5.87;68.52
25610;BME280;13479;49.044;8.716;2023-02-04T17:56:13;100807.34;;;5.72;68.62
25610;BME280;13479;49.044;8.716;2023-02-04T17:58:39;100804.00;;;5.67;69.61
25610;BME280;13479;49.044;8.716;2023-02-04T18:01:13;100819.09;;;5.87;68.86